createdAt,value
2019-03-30T00:00:26.886Z,20.70
2019-03-30T00:02:55.364Z,20.55
2019-03-30T00:05:24.153Z,20.10
2019-03-30T00:07:52.637Z,20.35
2019-03-30T00:10:21.120Z,20.75
2019-03-30T00:12:49.600Z,20.57
2019-03-30T00:15:18.111Z,15.93
2019-03-30T00:17:46.556Z,23.67
2019-03-30T00:20:15.040Z,19.37
2019-03-30T00:22:43.445Z,17.25
2019-03-30T00:25:11.865Z,20.57
2019-03-30T00:27:40.351Z,21.48
2019-03-30T00:30:08.836Z,23.25
2019-03-30T00:32:37.244Z,24.80
2019-03-30T00:35:06.743Z,24.43
2019-03-30T00:37:35.152Z,18.30
2019-03-30T00:40:04.304Z,20.32
2019-03-30T00:42:32.712Z,23.62
2019-03-30T00:45:01.128Z,19.85
2019-03-30T00:47:29.543Z,26.35
2019-03-30T00:49:57.952Z,26.50
2019-03-30T00:52:26.369Z,25.52
2019-03-30T00:54:54.860Z,22.07
2019-03-30T00:57:23.278Z,26.85
2019-03-30T00:59:51.688Z,22.17
2019-03-30T01:02:20.100Z,22.67
2019-03-30T01:04:48.585Z,20.37
2019-03-30T01:07:17.022Z,22.25
2019-03-30T01:09:45.434Z,27.58
2019-03-30T01:12:13.860Z,23.18
2019-03-30T01:14:42.268Z,23.52
2019-03-30T01:17:10.956Z,22.30
2019-03-30T01:19:39.363Z,23.95
2019-03-30T01:22:07.916Z,21.80
2019-03-30T01:24:36.400Z,28.45
2019-03-30T01:27:05.143Z,32.08
2019-03-30T01:29:33.564Z,26.25
2019-03-30T01:32:02.087Z,23.10
2019-03-30T01:34:30.546Z,21.45
2019-03-30T01:36:58.959Z,25.02
2019-03-30T01:39:27.462Z,23.60
2019-03-30T01:41:55.942Z,26.77
2019-03-30T01:44:24.424Z,21.05
2019-03-30T01:46:52.845Z,24.55
2019-03-30T01:49:21.264Z,25.95
2019-03-30T01:51:49.681Z,31.02
2019-03-30T01:54:18.093Z,26.12
2019-03-30T01:56:46.661Z,22.50
2019-03-30T01:59:15.081Z,26.05
2019-03-30T02:01:43.488Z,21.68
2019-03-30T02:04:11.904Z,25.10
2019-03-30T02:06:40.348Z,26.52
2019-03-30T02:09:08.769Z,25.00
2019-03-30T02:11:37.214Z,28.57
2019-03-30T02:14:05.633Z,21.70
2019-03-30T02:16:34.117Z,24.75
2019-03-30T02:19:02.620Z,27.02
2019-03-30T02:21:31.024Z,28.65
2019-03-30T02:23:59.528Z,31.42
2019-03-30T02:26:28.076Z,28.67
2019-03-30T02:28:56.488Z,29.15
2019-03-30T02:31:24.973Z,28.23
2019-03-30T02:33:53.465Z,29.05
2019-03-30T02:36:21.961Z,26.20
2019-03-30T02:38:50.586Z,32.78
2019-03-30T02:41:19.071Z,27.58
2019-03-30T02:43:47.553Z,26.87
2019-03-30T02:46:15.977Z,31.20
2019-03-30T02:48:44.492Z,25.45
2019-03-30T02:51:12.990Z,34.80
2019-03-30T02:53:41.400Z,25.32
2019-03-30T02:56:09.937Z,30.45
2019-03-30T02:58:38.428Z,22.00
2019-03-30T03:01:06.914Z,29.05
2019-03-30T03:03:35.569Z,28.15
2019-03-30T03:06:03.985Z,30.43
2019-03-30T03:08:32.473Z,28.55
2019-03-30T03:11:00.886Z,27.50
2019-03-30T03:13:29.309Z,31.25
2019-03-30T03:15:57.733Z,30.68
2019-03-30T03:18:26.213Z,35.23
2019-03-30T03:21:07.432Z,27.90
2019-03-30T03:23:24.765Z,29.40
2019-03-30T03:25:53.173Z,25.43
2019-03-30T03:28:21.691Z,28.55
2019-03-30T03:30:50.089Z,32.05
2019-03-30T03:33:18.573Z,29.60
2019-03-30T03:35:46.990Z,29.48
2019-03-30T03:38:15.455Z,26.17
2019-03-30T03:40:43.819Z,31.97
2019-03-30T03:43:12.247Z,30.25
2019-03-30T03:45:40.737Z,27.80
2019-03-30T03:48:09.156Z,25.00
2019-03-30T03:50:44.523Z,31.05
2019-03-30T03:53:16.051Z,31.85
2019-03-30T03:55:45.009Z,30.10
2019-03-30T03:58:13.685Z,32.13
2019-03-30T04:00:42.104Z,30.80
2019-03-30T04:03:11.276Z,29.37
2019-03-30T04:05:39.957Z,27.82
2019-03-30T04:08:08.933Z,30.02
2019-03-30T04:10:38.118Z,31.70
2019-03-30T04:13:08.275Z,39.42
2019-03-30T04:15:36.789Z,34.70
2019-03-30T04:18:05.278Z,34.25
2019-03-30T04:20:33.761Z,36.00
2019-03-30T04:23:02.181Z,30.32
2019-03-30T04:25:30.669Z,26.52
2019-03-30T04:27:59.081Z,32.70
2019-03-30T04:30:27.573Z,34.65
2019-03-30T04:32:56.015Z,26.27
2019-03-30T04:35:24.411Z,31.23
2019-03-30T04:37:52.833Z,29.65
2019-03-30T04:40:21.253Z,29.35
2019-03-30T04:42:49.738Z,28.87
2019-03-30T04:45:18.264Z,29.40
2019-03-30T04:47:46.690Z,29.60
2019-03-30T04:50:15.105Z,32.00
2019-03-30T04:52:43.587Z,35.20
2019-03-30T04:55:12.008Z,35.25
2019-03-30T04:57:40.483Z,32.65
2019-03-30T05:00:08.840Z,30.52
2019-03-30T05:02:37.252Z,32.35
2019-03-30T05:05:07.112Z,42.25
2019-03-30T05:07:35.527Z,34.83
2019-03-30T05:10:06.885Z,33.83
2019-03-30T05:12:35.383Z,30.35
2019-03-30T05:15:04.939Z,35.48
2019-03-30T05:17:46.796Z,32.15
2019-03-30T05:20:04.280Z,31.95
2019-03-30T05:22:32.700Z,28.73
2019-03-30T05:25:01.356Z,28.80
2019-03-30T05:27:29.843Z,38.25
2019-03-30T05:29:58.253Z,28.47
2019-03-30T05:32:26.702Z,31.07
2019-03-30T05:34:55.156Z,35.28
2019-03-30T05:37:23.569Z,34.00
2019-03-30T05:39:52.002Z,35.40
2019-03-30T05:42:20.559Z,35.85
2019-03-30T05:44:48.977Z,34.23
2019-03-30T05:47:17.391Z,28.45
2019-03-30T05:49:45.875Z,30.30
2019-03-30T05:52:25.752Z,30.57
2019-03-30T05:54:44.437Z,30.65
2019-03-30T05:57:12.959Z,31.65
2019-03-30T05:59:41.401Z,38.63
2019-03-30T06:02:09.881Z,27.22
2019-03-30T06:04:38.371Z,25.35
2019-03-30T06:07:06.864Z,34.00
2019-03-30T06:09:35.396Z,27.62
2019-03-30T06:12:03.886Z,32.38
2019-03-30T06:14:32.363Z,28.23
2019-03-30T06:17:00.997Z,25.25
2019-03-30T06:19:29.523Z,45.98
2019-03-30T06:21:57.904Z,31.07
2019-03-30T06:24:28.349Z,26.20
2019-03-30T06:26:56.850Z,35.10
2019-03-30T06:29:25.365Z,29.75
2019-03-30T06:31:53.768Z,26.05
2019-03-30T06:34:24.111Z,25.08
2019-03-30T06:36:52.547Z,29.05
2019-03-30T06:39:21.056Z,43.40
2019-03-30T06:41:49.536Z,26.80
2019-03-30T06:44:18.085Z,26.23
2019-03-30T06:46:46.568Z,24.10
2019-03-30T06:49:15.052Z,28.70
2019-03-30T06:51:43.607Z,27.65
2019-03-30T06:54:14.639Z,28.75
2019-03-30T06:56:42.104Z,22.22
2019-03-30T06:59:10.597Z,27.00
2019-03-30T07:01:39.080Z,24.77
2019-03-30T07:04:11.053Z,30.10
2019-03-30T07:06:37.643Z,23.87
2019-03-30T07:09:06.202Z,32.88
2019-03-30T07:11:37.872Z,26.17
2019-03-30T07:14:06.363Z,25.92
2019-03-30T07:16:36.728Z,33.40
2019-03-30T07:19:05.383Z,23.52
2019-03-30T07:21:33.801Z,19.02
2019-03-30T07:24:02.284Z,24.18
2019-03-30T07:26:30.902Z,20.90
2019-03-30T07:28:59.393Z,26.97
2019-03-30T07:31:27.956Z,21.30
2019-03-30T07:33:56.369Z,23.60
2019-03-30T07:36:24.859Z,25.82
2019-03-30T07:38:53.353Z,51.90
2019-03-30T07:41:21.777Z,44.70
2019-03-30T07:43:50.251Z,26.35
2019-03-30T07:46:19.803Z,47.58
2019-03-30T07:48:48.367Z,29.63
2019-03-30T07:51:16.854Z,27.60
2019-03-30T07:53:45.354Z,32.03
2019-03-30T07:56:13.841Z,33.15
2019-03-30T07:58:42.256Z,18.77
2019-03-30T08:01:10.766Z,25.75
2019-03-30T08:03:39.156Z,24.87
2019-03-30T08:06:07.573Z,20.35
2019-03-30T08:08:36.063Z,24.40
2019-03-30T08:11:04.559Z,28.80
2019-03-30T08:13:33.057Z,17.05
2019-03-30T08:16:01.600Z,21.75
2019-03-30T08:18:30.085Z,18.45
2019-03-30T08:20:58.577Z,20.55
2019-03-30T08:23:39.867Z,17.60
2019-03-30T08:25:57.280Z,30.85
2019-03-30T08:28:25.723Z,26.07
2019-03-30T08:30:54.208Z,19.80
2019-03-30T08:33:22.630Z,16.55
2019-03-30T08:35:51.128Z,15.60
2019-03-30T08:38:19.652Z,14.07
2019-03-30T08:40:48.141Z,23.73
2019-03-30T08:43:16.632Z,18.10
2019-03-30T08:45:48.687Z,22.62
2019-03-30T08:48:15.259Z,24.40
2019-03-30T08:50:43.848Z,21.05
2019-03-30T08:53:16.369Z,13.88
2019-03-30T08:55:44.980Z,20.72
2019-03-30T08:58:13.414Z,20.52
2019-03-30T09:00:42.369Z,16.50
2019-03-30T09:03:10.897Z,20.35
2019-03-30T09:05:39.465Z,15.38
2019-03-30T09:08:08.215Z,16.07
2019-03-30T09:10:37.650Z,14.10
2019-03-30T09:13:06.089Z,15.53
2019-03-30T09:15:35.157Z,16.80
2019-03-30T09:18:03.644Z,24.30
2019-03-30T09:20:32.056Z,12.78
2019-03-30T09:23:00.468Z,15.15
2019-03-30T09:25:28.909Z,26.27
2019-03-30T09:27:57.745Z,17.98
2019-03-30T09:30:26.237Z,17.57
2019-03-30T09:32:54.728Z,17.23
2019-03-30T09:35:23.154Z,24.82
2019-03-30T09:37:51.571Z,16.55
2019-03-30T09:40:19.992Z,23.07
2019-03-30T09:42:48.537Z,19.27
2019-03-30T09:45:16.968Z,16.85
2019-03-30T09:47:45.467Z,26.80
2019-03-30T09:50:13.884Z,28.98
2019-03-30T09:52:42.303Z,13.28
2019-03-30T09:55:10.797Z,19.75
2019-03-30T09:57:39.214Z,17.10
2019-03-30T10:00:07.704Z,18.52
2019-03-30T10:02:36.117Z,27.42
2019-03-30T10:05:04.987Z,23.83
2019-03-30T10:07:33.403Z,22.73
2019-03-30T10:10:01.899Z,22.10
2019-03-30T10:12:30.389Z,33.60
2019-03-30T10:14:58.827Z,20.68
2019-03-30T10:17:27.314Z,24.55
2019-03-30T10:20:04.383Z,23.25
2019-03-30T10:22:25.868Z,23.73
2019-03-30T10:24:54.349Z,28.47
2019-03-30T10:27:22.897Z,20.68
2019-03-30T10:29:51.279Z,20.90
2019-03-30T10:32:19.958Z,17.82
2019-03-30T10:34:48.846Z,20.92
2019-03-30T10:37:17.428Z,22.00
2019-03-30T10:39:45.929Z,20.32
2019-03-30T10:42:14.408Z,18.32
2019-03-30T10:44:42.820Z,21.12
2019-03-30T10:47:11.356Z,19.07
2019-03-30T10:49:39.720Z,17.87
2019-03-30T10:52:08.302Z,32.58
2019-03-30T10:54:36.723Z,18.62
2019-03-30T10:57:05.140Z,26.68
2019-03-30T10:59:33.556Z,18.40
2019-03-30T11:02:02.048Z,16.97
2019-03-30T11:04:30.548Z,17.98
2019-03-30T11:06:59.031Z,22.15
2019-03-30T11:09:27.448Z,25.00
2019-03-30T11:11:55.934Z,23.62
2019-03-30T11:14:24.431Z,25.27
2019-03-30T11:16:52.853Z,16.95
2019-03-30T11:19:21.334Z,30.97
2019-03-30T11:21:49.844Z,23.45
2019-03-30T11:24:18.425Z,26.85
2019-03-30T11:26:47.006Z,15.65
2019-03-30T11:29:15.379Z,17.15
2019-03-30T11:31:43.781Z,19.02
2019-03-30T11:34:12.193Z,20.60
2019-03-30T11:36:42.466Z,15.45
2019-03-30T11:39:10.914Z,21.35
2019-03-30T11:41:41.704Z,17.00
2019-03-30T11:44:10.115Z,25.10
2019-03-30T11:46:38.605Z,16.95
2019-03-30T11:49:07.092Z,22.13
2019-03-30T11:51:35.501Z,14.93
2019-03-30T11:54:05.465Z,18.57
2019-03-30T11:56:34.111Z,17.80
2019-03-30T11:59:02.524Z,19.37
2019-03-30T12:01:31.021Z,21.82
2019-03-30T12:03:59.424Z,18.17
2019-03-30T12:06:27.840Z,18.23
2019-03-30T12:08:56.252Z,14.78
2019-03-30T12:11:24.760Z,17.45
2019-03-30T12:13:53.235Z,25.50
2019-03-30T12:16:21.652Z,18.82
2019-03-30T12:18:50.158Z,19.77
2019-03-30T12:21:20.405Z,21.37
2019-03-30T12:23:48.859Z,19.32
2019-03-30T12:26:17.360Z,26.25
2019-03-30T12:28:45.797Z,24.45
2019-03-30T12:31:14.216Z,22.13
2019-03-30T12:33:42.780Z,21.17
2019-03-30T12:36:11.344Z,19.57
2019-03-30T12:38:39.769Z,20.17
2019-03-30T12:41:08.188Z,20.80
2019-03-30T12:43:39.006Z,18.85
2019-03-30T12:46:06.815Z,18.57
2019-03-30T12:48:35.307Z,23.18
2019-03-30T12:51:03.737Z,14.50
2019-03-30T12:53:32.220Z,21.50
2019-03-30T12:56:00.720Z,21.68
2019-03-30T12:58:29.208Z,22.22
2019-03-30T13:00:57.703Z,22.55
2019-03-30T13:03:26.132Z,23.07
2019-03-30T13:05:54.546Z,16.52
2019-03-30T13:08:23.041Z,23.22
2019-03-30T13:10:51.531Z,18.67
2019-03-30T13:13:20.102Z,21.17
2019-03-30T13:15:48.544Z,25.88
2019-03-30T13:18:16.968Z,19.82
2019-03-30T13:20:45.388Z,27.60
2019-03-30T13:23:13.884Z,17.80
2019-03-30T13:25:42.372Z,25.48
2019-03-30T13:28:10.815Z,36.23
2019-03-30T13:30:39.291Z,24.18
2019-03-30T13:33:07.708Z,26.97
2019-03-30T13:35:36.136Z,19.37
2019-03-30T13:38:04.553Z,31.57
2019-03-30T13:40:32.972Z,20.23
2019-03-30T13:43:01.460Z,18.40
2019-03-30T13:45:29.976Z,35.20
2019-03-30T13:47:58.469Z,20.97
2019-03-30T13:50:26.895Z,16.67
2019-03-30T13:52:55.310Z,24.10
2019-03-30T13:55:23.835Z,26.30
2019-03-30T13:57:52.249Z,24.45
2019-03-30T14:00:23.760Z,27.82
2019-03-30T14:02:52.160Z,27.48
2019-03-30T14:05:20.581Z,28.12
2019-03-30T14:07:49.102Z,18.70
2019-03-30T14:10:17.574Z,29.77
2019-03-30T14:12:46.124Z,27.82
2019-03-30T14:15:14.537Z,25.37
2019-03-30T14:17:42.949Z,19.10
2019-03-30T14:20:11.445Z,31.57
2019-03-30T14:22:39.936Z,23.42
2019-03-30T14:25:08.428Z,18.80
2019-03-30T14:27:36.841Z,19.45
2019-03-30T14:30:10.224Z,19.95
2019-03-30T14:32:38.769Z,19.40
2019-03-30T14:35:07.543Z,14.63
2019-03-30T14:37:38.502Z,18.30
2019-03-30T14:40:07.748Z,22.25
2019-03-30T14:42:36.264Z,20.65
2019-03-30T14:45:07.591Z,22.40
2019-03-30T14:47:36.032Z,18.75
2019-03-30T14:50:07.372Z,23.02
2019-03-30T14:52:36.064Z,21.02
2019-03-30T14:55:06.783Z,22.77
2019-03-30T14:57:35.193Z,23.32
2019-03-30T15:00:04.257Z,19.85
2019-03-30T15:02:32.679Z,18.60
2019-03-30T15:05:01.643Z,22.17
2019-03-30T15:07:30.288Z,27.42
2019-03-30T15:09:58.712Z,16.75
2019-03-30T15:12:27.204Z,25.95
2019-03-30T15:14:55.642Z,20.45
2019-03-30T15:17:24.108Z,14.85
2019-03-30T15:19:52.604Z,17.42
2019-03-30T15:22:21.096Z,19.02
2019-03-30T15:24:49.520Z,13.32
2019-03-30T15:27:17.937Z,19.12
2019-03-30T15:29:46.348Z,18.23
2019-03-30T15:32:14.892Z,19.52
2019-03-30T15:34:43.280Z,17.45
2019-03-30T15:37:11.872Z,17.70
2019-03-30T15:39:40.508Z,15.38
2019-03-30T15:42:08.920Z,17.32
2019-03-30T15:44:37.424Z,12.45
2019-03-30T15:47:05.841Z,16.73
2019-03-30T15:49:34.336Z,16.20
2019-03-30T15:52:13.363Z,13.18
2019-03-30T15:54:33.040Z,13.85
2019-03-30T15:57:13.571Z,20.05
2019-03-30T15:59:31.684Z,17.42
2019-03-30T16:02:00.188Z,18.95
2019-03-30T16:04:28.621Z,22.77
2019-03-30T16:06:57.105Z,16.65
2019-03-30T16:09:25.604Z,14.40
2019-03-30T16:11:54.096Z,18.32
2019-03-30T16:14:22.513Z,16.42
2019-03-30T16:16:51.004Z,16.35
2019-03-30T16:19:19.496Z,26.02
2019-03-30T16:21:49.622Z,16.30
2019-03-30T16:24:18.063Z,20.30
2019-03-30T16:26:46.573Z,16.87
2019-03-30T16:29:15.056Z,18.98
2019-03-30T16:31:43.481Z,28.55
2019-03-30T16:34:11.976Z,16.62
2019-03-30T16:36:40.545Z,11.60
2019-03-30T16:39:09.044Z,14.90
2019-03-30T16:41:37.552Z,17.00
2019-03-30T16:44:06.072Z,15.78
2019-03-30T16:46:34.476Z,22.25
2019-03-30T16:49:02.963Z,21.37
2019-03-30T16:51:31.471Z,19.27
2019-03-30T16:53:59.888Z,25.50
2019-03-30T16:56:28.305Z,19.20
2019-03-30T16:58:56.725Z,21.68
2019-03-30T17:01:25.219Z,18.55
2019-03-30T17:03:53.676Z,22.67
2019-03-30T17:06:22.092Z,23.07
2019-03-30T17:08:50.585Z,22.00
2019-03-30T17:11:19.080Z,26.70
2019-03-30T17:13:47.497Z,26.48
2019-03-30T17:16:15.997Z,30.97
2019-03-30T17:18:44.415Z,27.15
2019-03-30T17:21:12.828Z,29.30
2019-03-30T17:23:41.313Z,17.87
2019-03-30T17:26:09.801Z,18.27
2019-03-30T17:28:38.289Z,20.52
2019-03-30T17:31:06.781Z,24.05
2019-03-30T17:33:36.389Z,19.80
2019-03-30T17:36:05.388Z,22.77
2019-03-30T17:38:33.868Z,27.55
2019-03-30T17:41:02.279Z,20.15
2019-03-30T17:43:30.768Z,22.58
2019-03-30T17:45:59.191Z,25.57
2019-03-30T17:48:29.557Z,25.90
2019-03-30T17:50:58.596Z,32.05
2019-03-30T17:53:27.210Z,26.02
2019-03-30T17:55:55.728Z,24.47
2019-03-30T17:58:24.218Z,27.62
2019-03-30T18:00:52.796Z,25.08
2019-03-30T18:03:21.389Z,21.27
2019-03-30T18:05:49.801Z,30.57
2019-03-30T18:08:18.287Z,22.98
2019-03-30T18:10:46.845Z,24.87
2019-03-30T18:13:15.337Z,20.80
2019-03-30T18:15:43.769Z,22.52
2019-03-30T18:18:12.184Z,26.02
2019-03-30T18:20:40.608Z,21.75
2019-03-30T18:23:09.153Z,22.07
2019-03-30T18:25:37.590Z,26.07
2019-03-30T18:28:06.087Z,22.20
2019-03-30T18:30:36.757Z,24.65
2019-03-30T18:33:05.587Z,24.60
2019-03-30T18:35:34.192Z,25.17
2019-03-30T18:38:05.645Z,26.35
2019-03-30T18:40:34.138Z,23.92
2019-03-30T18:43:03.337Z,28.52
2019-03-30T18:45:33.859Z,29.77
2019-03-30T18:48:16.012Z,29.05
2019-03-30T18:50:44.823Z,32.50
2019-03-30T18:53:14.287Z,26.42
2019-03-30T18:55:42.760Z,29.37
2019-03-30T18:58:11.324Z,27.70
2019-03-30T19:00:39.811Z,29.48
2019-03-30T19:03:08.313Z,30.80
2019-03-30T19:05:36.881Z,30.00
2019-03-30T19:08:05.323Z,28.73
2019-03-30T19:10:33.814Z,31.77
2019-03-30T19:13:02.368Z,27.15
2019-03-30T19:15:30.864Z,34.08
2019-03-30T19:17:59.351Z,35.00
2019-03-30T19:20:27.840Z,32.53
2019-03-30T19:22:56.283Z,36.73
2019-03-30T19:25:24.757Z,35.23
2019-03-30T19:27:53.176Z,35.03
2019-03-30T19:30:21.713Z,31.33
2019-03-30T19:32:50.201Z,42.13
2019-03-30T19:35:18.692Z,45.92
2019-03-30T19:37:47.104Z,39.03
2019-03-30T19:40:15.595Z,47.03
2019-03-30T19:42:44.082Z,44.75
2019-03-30T19:45:12.674Z,39.53
2019-03-30T19:47:41.160Z,42.93
2019-03-30T19:50:09.851Z,49.35
2019-03-30T19:52:40.016Z,48.25
2019-03-30T19:55:08.440Z,49.60
2019-03-30T19:57:36.854Z,42.48
2019-03-30T20:00:08.109Z,48.75
2019-03-30T20:02:36.605Z,49.50
2019-03-30T20:05:06.491Z,50.63
2019-03-30T20:07:34.977Z,49.48
2019-03-30T20:10:03.466Z,50.30
2019-03-30T20:12:32.066Z,46.73
2019-03-30T20:15:00.724Z,54.95
2019-03-30T20:17:29.213Z,54.65
2019-03-30T20:19:57.624Z,52.35
2019-03-30T20:22:26.117Z,59.53
2019-03-30T20:24:54.604Z,57.53
2019-03-30T20:27:23.103Z,59.50
2019-03-30T20:29:51.585Z,57.53
2019-03-30T20:32:20.159Z,53.73
2019-03-30T20:34:48.673Z,60.38
2019-03-30T20:37:17.161Z,70.55
2019-03-30T20:39:45.657Z,58.55
2019-03-30T20:42:14.147Z,62.30
2019-03-30T20:44:42.635Z,66.87
2019-03-30T20:47:11.124Z,61.70
2019-03-30T20:49:39.724Z,64.10
2019-03-30T20:52:08.219Z,71.12
2019-03-30T20:54:36.798Z,62.08
2019-03-30T20:57:05.292Z,68.00
2019-03-30T20:59:39.801Z,71.55
2019-03-30T21:02:03.935Z,65.03
2019-03-30T21:04:32.417Z,72.32
2019-03-30T21:07:00.840Z,68.05
2019-03-30T21:09:29.357Z,69.53
2019-03-30T21:11:57.922Z,75.28
2019-03-30T21:14:26.468Z,67.62
2019-03-30T21:16:55.004Z,73.17
2019-03-30T21:19:23.424Z,71.90
2019-03-30T21:21:51.835Z,75.85
2019-03-30T21:24:20.328Z,74.97
2019-03-30T21:26:48.837Z,69.42
2019-03-30T21:29:17.363Z,65.90
2019-03-30T21:31:49.142Z,70.03
2019-03-30T21:34:15.988Z,68.10
2019-03-30T21:36:44.472Z,70.00
2019-03-30T21:39:12.887Z,71.22
2019-03-30T21:41:41.291Z,71.77
2019-03-30T21:44:21.317Z,64.75
2019-03-30T21:46:39.847Z,65.60
2019-03-30T21:49:08.344Z,63.95
2019-03-30T21:51:36.767Z,60.12
2019-03-30T21:54:05.173Z,58.65
2019-03-30T21:56:33.769Z,57.78
2019-03-30T21:59:02.623Z,64.53
2019-03-30T22:01:31.045Z,62.78
2019-03-30T22:03:59.534Z,56.15
2019-03-30T22:06:27.944Z,58.58
2019-03-30T22:08:56.446Z,55.52
2019-03-30T22:11:24.862Z,55.60
2019-03-30T22:13:53.290Z,50.75
2019-03-30T22:16:21.765Z,50.83
2019-03-30T22:18:50.253Z,50.33
2019-03-30T22:21:18.736Z,53.58
2019-03-30T22:23:47.207Z,50.48
2019-03-30T22:26:15.632Z,50.20
2019-03-30T22:28:44.051Z,47.25
2019-03-30T22:31:12.475Z,49.80
2019-03-30T22:33:40.957Z,53.00
2019-03-30T22:36:09.433Z,56.63
2019-03-30T22:38:37.865Z,53.17
2019-03-30T22:41:06.332Z,50.33
2019-03-30T22:43:34.824Z,54.95
2019-03-30T22:46:03.382Z,51.73
2019-03-30T22:48:31.872Z,49.70
2019-03-30T22:51:00.410Z,51.15
2019-03-30T22:53:28.780Z,46.95
2019-03-30T22:55:57.203Z,57.75
2019-03-30T22:58:25.684Z,56.20
2019-03-30T23:00:56.018Z,53.30
2019-03-30T23:03:24.502Z,58.38
2019-03-30T23:05:54.555Z,54.33
2019-03-30T23:08:26.033Z,57.48
2019-03-30T23:10:59.373Z,51.75
2019-03-30T23:13:30.735Z,48.23
2019-03-30T23:15:59.151Z,50.90
2019-03-30T23:18:31.562Z,51.18
2019-03-30T23:23:29.720Z,53.40
2019-03-30T23:25:58.212Z,53.00
2019-03-30T23:28:27.924Z,52.08
2019-03-30T23:30:58.890Z,55.88
2019-03-30T23:33:27.272Z,56.15
2019-03-30T23:35:55.701Z,51.10
2019-03-30T23:38:24.258Z,58.33
2019-03-30T23:40:52.745Z,48.58
2019-03-30T23:43:21.233Z,56.53
2019-03-30T23:45:51.817Z,62.65
2019-03-30T23:48:22.500Z,56.75
2019-03-30T23:50:50.912Z,58.05
2019-03-30T23:53:19.406Z,64.55
2019-03-30T23:55:49.020Z,63.00
2019-03-30T23:58:17.501Z,63.65
